sensor_id;sensor_type;location;lat;lon;timestamp;temperature;humidity
33927;DHT22;20485;50.992;5.550;2023-03-19T00:02:01;9.30;99.90
33927;DHT22;20485;50.992;5.550;2023-03-19T00:04:27;9.40;99.90
33927;DHT22;20485;50.992;5.550;2023-03-19T00:06:53;9.40;99.90
33927;DHT22;20485;50.992;5.550;2023-03-19T00:09:26;9.30;99.90
33927;DHT22;20485;50.992;5.550;2023-03-19T00:11:52;9.40;99.90
33927;DHT22;20485;50.992;5.550;2023-03-19T00:14:18;9.40;99.90
33927;DHT22;20485;50.992;5.550;2023-03-19T00:16:43;9.40;99.90
33927;DHT22;20485;50.992;5.550;2023-03-19T00:19:09;9.40;99.90
33927;DHT22;20485;50.992;5.550;2023-03-19T00:21:35;9.40;99.90
33927;DHT22;20485;50.992;5.550;2023-03-19T00:24:01;9.40;99.90
33927;DHT22;20485;50.992;5.550;2023-03-19T00:26:33;9.40;99.90
33927;DHT22;20485;50.992;5.550;2023-03-19T00:29:00;9.40;99.90
33927;DHT22;20485;50.992;5.550;2023-03-19T00:31:27;9.30;99.90
33927;DHT22;20485;50.992;5.550;2023-03-19T00:33:55;9.30;99.90
33927;DHT22;20485;50.992;5.550;2023-03-19T00:36:26;9.30;99.90
33927;DHT22;20485;50.992;5.550;2023-03-19T00:38:53;9.20;99.90
33927;DHT22;20485;50.992;5.550;2023-03-19T00:41:19;9.20;99.90
33927;DHT22;20485;50.992;5.550;2023-03-19T00:43:45;9.20;99.90
33927;DHT22;20485;50.992;5.550;2023-03-19T00:46:12;9.20;99.90
33927;DHT22;20485;50.992;5.550;2023-03-19T00:48:38;9.20;99.90
33927;DHT22;20485;50.992;5.550;2023-03-19T00:51:08;9.20;99.90
33927;DHT22;20485;50.992;5.550;2023-03-19T00:53:38;9.10;99.90
33927;DHT22;20485;50.992;5.550;2023-03-19T00:56:05;9.10;99.90
33927;DHT22;20485;50.992;5.550;2023-03-19T00:58:32;9.20;99.90
33927;DHT22;20485;50.992;5.550;2023-03-19T01:00:58;9.10;99.90
33927;DHT22;20485;50.992;5.550;2023-03-19T01:03:27;9.10;99.90
33927;DHT22;20485;50.992;5.550;2023-03-19T01:05:53;9.20;99.90
33927;DHT22;20485;50.992;5.550;2023-03-19T01:08:18;9.20;99.90
33927;DHT22;20485;50.992;5.550;2023-03-19T01:10:45;9.20;99.90
33927;DHT22;20485;50.992;5.550;2023-03-19T01:13:11;9.10;99.90
33927;DHT22;20485;50.992;5.550;2023-03-19T01:15:40;9.10;99.90
33927;DHT22;20485;50.992;5.550;2023-03-19T01:18:07;9.20;99.90
33927;DHT22;20485;50.992;5.550;2023-03-19T01:20:34;9.20;99.90
33927;DHT22;20485;50.992;5.550;2023-03-19T01:22:59;9.20;99.90
33927;DHT22;20485;50.992;5.550;2023-03-19T01:25:26;9.10;99.90
33927;DHT22;20485;50.992;5.550;2023-03-19T01:27:52;9.10;99.90
33927;DHT22;20485;50.992;5.550;2023-03-19T01:30:18;9.10;99.90
33927;DHT22;20485;50.992;5.550;2023-03-19T01:32:45;9.10;99.90
33927;DHT22;20485;50.992;5.550;2023-03-19T01:35:11;9.10;99.90
33927;DHT22;20485;50.992;5.550;2023-03-19T01:37:40;9.10;99.90
33927;DHT22;20485;50.992;5.550;2023-03-19T01:40:13;9.10;99.90
33927;DHT22;20485;50.992;5.550;2023-03-19T01:45:35;9.00;99.90
33927;DHT22;20485;50.992;5.550;2023-03-19T01:48:03;9.10;99.90
33927;DHT22;20485;50.992;5.550;2023-03-19T01:50:43;9.00;99.90
33927;DHT22;20485;50.992;5.550;2023-03-19T01:53:11;9.00;99.90
33927;DHT22;20485;50.992;5.550;2023-03-19T01:55:38;9.00;99.90
33927;DHT22;20485;50.992;5.550;2023-03-19T01:58:04;9.10;99.90
33927;DHT22;20485;50.992;5.550;2023-03-19T02:00:32;9.00;99.90
33927;DHT22;20485;50.992;5.550;2023-03-19T02:03:00;9.00;99.90
33927;DHT22;20485;50.992;5.550;2023-03-19T02:05:26;9.10;99.90
33927;DHT22;20485;50.992;5.550;2023-03-19T02:07:59;9.10;99.90
33927;DHT22;20485;50.992;5.550;2023-03-19T02:10:26;9.10;99.90
33927;DHT22;20485;50.992;5.550;2023-03-19T02:12:53;9.10;99.90
33927;DHT22;20485;50.992;5.550;2023-03-19T02:15:18;9.10;99.90
33927;DHT22;20485;50.992;5.550;2023-03-19T02:17:45;9.20;99.90
33927;DHT22;20485;50.992;5.550;2023-03-19T02:20:33;9.20;99.90
33927;DHT22;20485;50.992;5.550;2023-03-19T02:28:15;9.30;99.90
33927;DHT22;20485;50.992;5.550;2023-03-19T02:30:43;9.30;99.90
33927;DHT22;20485;50.992;5.550;2023-03-19T02:33:14;9.30;99.90
33927;DHT22;20485;50.992;5.550;2023-03-19T02:35:41;9.30;99.90
33927;DHT22;20485;50.992;5.550;2023-03-19T02:38:11;9.30;99.90
33927;DHT22;20485;50.992;5.550;2023-03-19T02:40:42;9.40;99.90
33927;DHT22;20485;50.992;5.550;2023-03-19T02:43:09;9.40;99.90
33927;DHT22;20485;50.992;5.550;2023-03-19T02:45:35;9.40;99.90
33927;DHT22;20485;50.992;5.550;2023-03-19T02:48:06;9.40;99.90
33927;DHT22;20485;50.992;5.550;2023-03-19T02:50:32;9.40;99.90
33927;DHT22;20485;50.992;5.550;2023-03-19T02:52:58;9.40;99.90
33927;DHT22;20485;50.992;5.550;2023-03-19T02:55:24;9.50;99.90
33927;DHT22;20485;50.992;5.550;2023-03-19T02:57:50;9.50;99.90
33927;DHT22;20485;50.992;5.550;2023-03-19T03:00:16;9.50;99.90
33927;DHT22;20485;50.992;5.550;2023-03-19T03:02:43;9.50;99.90
33927;DHT22;20485;50.992;5.550;2023-03-19T03:05:09;9.50;99.90
33927;DHT22;20485;50.992;5.550;2023-03-19T03:07:35;9.50;99.90
33927;DHT22;20485;50.992;5.550;2023-03-19T03:10:01;9.50;99.90
33927;DHT22;20485;50.992;5.550;2023-03-19T03:12:26;9.50;99.90
33927;DHT22;20485;50.992;5.550;2023-03-19T03:14:52;9.50;99.90
33927;DHT22;20485;50.992;5.550;2023-03-19T03:17:18;9.50;99.90
33927;DHT22;20485;50.992;5.550;2023-03-19T03:19:44;9.50;99.90
33927;DHT22;20485;50.992;5.550;2023-03-19T03:22:10;9.50;99.90
33927;DHT22;20485;50.992;5.550;2023-03-19T03:24:36;9.60;99.90
33927;DHT22;20485;50.992;5.550;2023-03-19T03:27:11;9.60;99.90
33927;DHT22;20485;50.992;5.550;2023-03-19T03:29:36;9.60;99.90
33927;DHT22;20485;50.992;5.550;2023-03-19T03:32:02;9.60;99.90
33927;DHT22;20485;50.992;5.550;2023-03-19T03:34:28;9.60;99.90
33927;DHT22;20485;50.992;5.550;2023-03-19T03:36:54;9.60;99.90
33927;DHT22;20485;50.992;5.550;2023-03-19T03:39:20;9.60;99.90
33927;DHT22;20485;50.992;5.550;2023-03-19T03:41:45;9.60;99.90
33927;DHT22;20485;50.992;5.550;2023-03-19T03:44:11;9.60;99.90
33927;DHT22;20485;50.992;5.550;2023-03-19T03:46:37;9.60;99.90
33927;DHT22;20485;50.992;5.550;2023-03-19T03:49:03;9.50;99.90
33927;DHT22;20485;50.992;5.550;2023-03-19T03:51:29;9.50;99.90
33927;DHT22;20485;50.992;5.550;2023-03-19T03:53:58;9.60;99.90
33927;DHT22;20485;50.992;5.550;2023-03-19T03:56:23;9.50;99.90
33927;DHT22;20485;50.992;5.550;2023-03-19T03:58:49;9.50;99.90
33927;DHT22;20485;50.992;5.550;2023-03-19T04:01:16;9.50;99.90
33927;DHT22;20485;50.992;5.550;2023-03-19T04:03:45;9.50;99.90
33927;DHT22;20485;50.992;5.550;2023-03-19T04:06:14;9.50;99.90
33927;DHT22;20485;50.992;5.550;2023-03-19T04:08:41;9.60;99.90
33927;DHT22;20485;50.992;5.550;2023-03-19T04:11:07;9.50;99.90
33927;DHT22;20485;50.992;5.550;2023-03-19T04:13:33;9.60;99.90
33927;DHT22;20485;50.992;5.550;2023-03-19T04:16:05;9.60;99.90
33927;DHT22;20485;50.992;5.550;2023-03-19T04:18:30;9.50;99.90
33927;DHT22;20485;50.992;5.550;2023-03-19T04:20:56;9.50;99.90
33927;DHT22;20485;50.992;5.550;2023-03-19T04:23:23;9.50;99.90
33927;DHT22;20485;50.992;5.550;2023-03-19T04:25:49;9.50;99.90
33927;DHT22;20485;50.992;5.550;2023-03-19T04:28:16;9.50;99.90
33927;DHT22;20485;50.992;5.550;2023-03-19T04:30:41;9.50;99.90
33927;DHT22;20485;50.992;5.550;2023-03-19T04:33:10;9.50;99.90
33927;DHT22;20485;50.992;5.550;2023-03-19T04:35:36;9.50;99.90
33927;DHT22;20485;50.992;5.550;2023-03-19T04:38:02;9.50;99.90
33927;DHT22;20485;50.992;5.550;2023-03-19T04:40:28;9.50;99.90
33927;DHT22;20485;50.992;5.550;2023-03-19T04:42:54;9.50;99.90
33927;DHT22;20485;50.992;5.550;2023-03-19T04:45:20;9.50;99.90
33927;DHT22;20485;50.992;5.550;2023-03-19T04:47:52;9.40;99.90
33927;DHT22;20485;50.992;5.550;2023-03-19T04:50:18;9.50;99.90
33927;DHT22;20485;50.992;5.550;2023-03-19T04:52:44;9.50;99.90
33927;DHT22;20485;50.992;5.550;2023-03-19T04:55:10;9.50;99.90
33927;DHT22;20485;50.992;5.550;2023-03-19T04:57:36;9.50;99.90
33927;DHT22;20485;50.992;5.550;2023-03-19T05:00:02;9.50;99.90
33927;DHT22;20485;50.992;5.550;2023-03-19T05:02:29;9.50;99.90
33927;DHT22;20485;50.992;5.550;2023-03-19T05:04:57;9.40;99.90
33927;DHT22;20485;50.992;5.550;2023-03-19T05:07:24;9.40;99.90
33927;DHT22;20485;50.992;5.550;2023-03-19T05:09:50;9.40;99.90
33927;DHT22;20485;50.992;5.550;2023-03-19T05:12:16;9.40;99.90
33927;DHT22;20485;50.992;5.550;2023-03-19T05:14:45;9.30;99.90
33927;DHT22;20485;50.992;5.550;2023-03-19T05:17:11;9.30;99.90
33927;DHT22;20485;50.992;5.550;2023-03-19T05:19:39;9.30;99.90
33927;DHT22;20485;50.992;5.550;2023-03-19T05:22:05;9.30;99.90
33927;DHT22;20485;50.992;5.550;2023-03-19T05:24:31;9.30;99.90
33927;DHT22;20485;50.992;5.550;2023-03-19T05:26:57;9.30;99.90
33927;DHT22;20485;50.992;5.550;2023-03-19T05:29:22;9.30;99.90
33927;DHT22;20485;50.992;5.550;2023-03-19T05:31:48;9.30;99.90
33927;DHT22;20485;50.992;5.550;2023-03-19T05:34:14;9.30;99.90
33927;DHT22;20485;50.992;5.550;2023-03-19T05:36:40;9.30;99.90
33927;DHT22;20485;50.992;5.550;2023-03-19T05:39:06;9.30;99.90
33927;DHT22;20485;50.992;5.550;2023-03-19T05:41:32;9.30;99.90
33927;DHT22;20485;50.992;5.550;2023-03-19T05:43:58;9.30;99.90
33927;DHT22;20485;50.992;5.550;2023-03-19T05:46:24;9.40;99.90
33927;DHT22;20485;50.992;5.550;2023-03-19T05:48:50;9.40;99.90
33927;DHT22;20485;50.992;5.550;2023-03-19T05:51:16;9.40;99.90
33927;DHT22;20485;50.992;5.550;2023-03-19T05:53:41;9.40;99.90
33927;DHT22;20485;50.992;5.550;2023-03-19T05:56:07;9.40;99.90
33927;DHT22;20485;50.992;5.550;2023-03-19T05:58:36;9.40;99.90
33927;DHT22;20485;50.992;5.550;2023-03-19T06:01:03;9.40;99.90
33927;DHT22;20485;50.992;5.550;2023-03-19T06:03:29;9.40;99.90
33927;DHT22;20485;50.992;5.550;2023-03-19T06:05:55;9.40;99.90
33927;DHT22;20485;50.992;5.550;2023-03-19T06:08:22;9.40;99.90
33927;DHT22;20485;50.992;5.550;2023-03-19T06:10:48;9.40;99.90
33927;DHT22;20485;50.992;5.550;2023-03-19T06:13:13;9.40;99.90
33927;DHT22;20485;50.992;5.550;2023-03-19T06:15:39;9.40;99.90
33927;DHT22;20485;50.992;5.550;2023-03-19T06:18:05;9.40;99.90
33927;DHT22;20485;50.992;5.550;2023-03-19T06:20:31;9.50;99.90
33927;DHT22;20485;50.992;5.550;2023-03-19T06:22:57;9.50;99.90
33927;DHT22;20485;50.992;5.550;2023-03-19T06:25:23;9.50;99.90
33927;DHT22;20485;50.992;5.550;2023-03-19T06:27:49;9.60;99.90
33927;DHT22;20485;50.992;5.550;2023-03-19T06:30:15;9.60;99.90
33927;DHT22;20485;50.992;5.550;2023-03-19T06:32:40;9.60;99.90
33927;DHT22;20485;50.992;5.550;2023-03-19T06:35:06;9.60;99.90
33927;DHT22;20485;50.992;5.550;2023-03-19T06:40:03;9.70;99.90
33927;DHT22;20485;50.992;5.550;2023-03-19T06:42:30;9.70;99.90
33927;DHT22;20485;50.992;5.550;2023-03-19T06:44:56;9.70;99.90
33927;DHT22;20485;50.992;5.550;2023-03-19T06:47:27;9.70;99.90
33927;DHT22;20485;50.992;5.550;2023-03-19T06:49:53;9.70;99.90
33927;DHT22;20485;50.992;5.550;2023-03-19T06:52:19;9.70;99.90
33927;DHT22;20485;50.992;5.550;2023-03-19T06:54:45;9.70;99.90
33927;DHT22;20485;50.992;5.550;2023-03-19T06:57:11;9.70;99.90
33927;DHT22;20485;50.992;5.550;2023-03-19T06:59:36;9.70;99.90
33927;DHT22;20485;50.992;5.550;2023-03-19T07:02:02;9.70;99.90
33927;DHT22;20485;50.992;5.550;2023-03-19T07:04:29;9.80;99.90
33927;DHT22;20485;50.992;5.550;2023-03-19T07:06:54;9.80;99.90
33927;DHT22;20485;50.992;5.550;2023-03-19T07:09:23;9.80;99.90
33927;DHT22;20485;50.992;5.550;2023-03-19T07:11:49;9.80;99.90
33927;DHT22;20485;50.992;5.550;2023-03-19T07:14:15;9.80;99.90
33927;DHT22;20485;50.992;5.550;2023-03-19T07:16:41;9.80;99.90
33927;DHT22;20485;50.992;5.550;2023-03-19T07:19:06;9.90;99.90
33927;DHT22;20485;50.992;5.550;2023-03-19T07:21:32;9.90;99.90
33927;DHT22;20485;50.992;5.550;2023-03-19T07:23:58;9.90;99.90
33927;DHT22;20485;50.992;5.550;2023-03-19T07:26:27;9.80;99.90
33927;DHT22;20485;50.992;5.550;2023-03-19T07:28:53;9.80;99.90
33927;DHT22;20485;50.992;5.550;2023-03-19T07:31:19;9.80;99.90
33927;DHT22;20485;50.992;5.550;2023-03-19T07:33:46;9.80;99.90
33927;DHT22;20485;50.992;5.550;2023-03-19T07:36:12;9.90;99.90
33927;DHT22;20485;50.992;5.550;2023-03-19T07:38:38;10.00;99.90
33927;DHT22;20485;50.992;5.550;2023-03-19T07:41:04;10.10;99.90
33927;DHT22;20485;50.992;5.550;2023-03-19T07:43:30;10.20;99.90
33927;DHT22;20485;50.992;5.550;2023-03-19T07:45:56;10.20;99.90
33927;DHT22;20485;50.992;5.550;2023-03-19T07:48:22;10.40;99.90
33927;DHT22;20485;50.992;5.550;2023-03-19T07:50:51;10.40;99.90
33927;DHT22;20485;50.992;5.550;2023-03-19T07:53:18;10.50;99.90
33927;DHT22;20485;50.992;5.550;2023-03-19T07:55:46;10.50;99.90
33927;DHT22;20485;50.992;5.550;2023-03-19T07:58:11;10.50;99.90
33927;DHT22;20485;50.992;5.550;2023-03-19T08:00:37;10.60;99.90
33927;DHT22;20485;50.992;5.550;2023-03-19T08:03:03;10.80;99.90
33927;DHT22;20485;50.992;5.550;2023-03-19T08:05:29;11.00;99.90
33927;DHT22;20485;50.992;5.550;2023-03-19T08:07:55;11.20;99.90
33927;DHT22;20485;50.992;5.550;2023-03-19T08:10:21;11.20;99.90
33927;DHT22;20485;50.992;5.550;2023-03-19T08:12:47;11.20;99.90
33927;DHT22;20485;50.992;5.550;2023-03-19T08:15:13;11.10;99.90
33927;DHT22;20485;50.992;5.550;2023-03-19T08:17:57;11.30;99.90
33927;DHT22;20485;50.992;5.550;2023-03-19T08:20:22;11.30;99.90
33927;DHT22;20485;50.992;5.550;2023-03-19T08:23:00;11.50;99.90
33927;DHT22;20485;50.992;5.550;2023-03-19T08:25:27;11.40;99.90
33927;DHT22;20485;50.992;5.550;2023-03-19T08:27:57;11.30;99.90
33927;DHT22;20485;50.992;5.550;2023-03-19T08:30:23;11.30;99.90
33927;DHT22;20485;50.992;5.550;2023-03-19T08:32:59;11.20;99.90
33927;DHT22;20485;50.992;5.550;2023-03-19T08:35:25;11.20;99.90
33927;DHT22;20485;50.992;5.550;2023-03-19T08:37:52;11.30;99.90
33927;DHT22;20485;50.992;5.550;2023-03-19T08:40:18;11.30;99.90
33927;DHT22;20485;50.992;5.550;2023-03-19T08:42:45;11.20;99.90
33927;DHT22;20485;50.992;5.550;2023-03-19T08:45:13;11.20;99.90
33927;DHT22;20485;50.992;5.550;2023-03-19T08:47:39;11.20;99.90
33927;DHT22;20485;50.992;5.550;2023-03-19T08:50:06;11.20;99.90
33927;DHT22;20485;50.992;5.550;2023-03-19T08:52:32;11.30;99.90
33927;DHT22;20485;50.992;5.550;2023-03-19T08:54:58;11.20;99.90
33927;DHT22;20485;50.992;5.550;2023-03-19T08:57:23;11.20;99.90
33927;DHT22;20485;50.992;5.550;2023-03-19T08:59:51;11.30;99.90
33927;DHT22;20485;50.992;5.550;2023-03-19T09:02:17;11.30;99.90
33927;DHT22;20485;50.992;5.550;2023-03-19T09:04:48;11.40;99.90
33927;DHT22;20485;50.992;5.550;2023-03-19T09:07:14;11.60;99.90
33927;DHT22;20485;50.992;5.550;2023-03-19T09:09:42;11.60;99.90
33927;DHT22;20485;50.992;5.550;2023-03-19T09:12:09;11.60;99.90
33927;DHT22;20485;50.992;5.550;2023-03-19T09:14:36;11.50;99.90
33927;DHT22;20485;50.992;5.550;2023-03-19T09:17:02;11.50;99.90
33927;DHT22;20485;50.992;5.550;2023-03-19T09:19:31;11.50;99.90
33927;DHT22;20485;50.992;5.550;2023-03-19T09:21:58;11.50;99.90
33927;DHT22;20485;50.992;5.550;2023-03-19T09:24:23;11.50;99.90
33927;DHT22;20485;50.992;5.550;2023-03-19T09:26:50;11.60;99.90
33927;DHT22;20485;50.992;5.550;2023-03-19T09:29:16;11.70;99.90
33927;DHT22;20485;50.992;5.550;2023-03-19T09:31:42;11.80;99.90
33927;DHT22;20485;50.992;5.550;2023-03-19T09:34:08;11.90;99.90
33927;DHT22;20485;50.992;5.550;2023-03-19T09:36:35;11.90;99.90
33927;DHT22;20485;50.992;5.550;2023-03-19T09:39:03;11.90;99.90
33927;DHT22;20485;50.992;5.550;2023-03-19T09:46:56;11.80;99.90
33927;DHT22;20485;50.992;5.550;2023-03-19T09:49:24;11.80;99.90
33927;DHT22;20485;50.992;5.550;2023-03-19T09:51:55;11.80;99.90
33927;DHT22;20485;50.992;5.550;2023-03-19T09:55:03;11.80;99.90
33927;DHT22;20485;50.992;5.550;2023-03-19T09:57:28;11.60;99.90
33927;DHT22;20485;50.992;5.550;2023-03-19T10:00:00;11.50;99.90
33927;DHT22;20485;50.992;5.550;2023-03-19T10:05:40;11.40;99.90
33927;DHT22;20485;50.992;5.550;2023-03-19T10:13:42;11.60;99.90
33927;DHT22;20485;50.992;5.550;2023-03-19T10:16:20;11.70;99.90
33927;DHT22;20485;50.992;5.550;2023-03-19T10:18:49;11.80;99.90
33927;DHT22;20485;50.992;5.550;2023-03-19T10:21:24;11.80;99.90
33927;DHT22;20485;50.992;5.550;2023-03-19T10:24:33;11.90;99.90
33927;DHT22;20485;50.992;5.550;2023-03-19T10:27:00;11.90;99.90
33927;DHT22;20485;50.992;5.550;2023-03-19T10:29:27;11.90;99.90
33927;DHT22;20485;50.992;5.550;2023-03-19T10:32:18;11.90;99.90
33927;DHT22;20485;50.992;5.550;2023-03-19T10:34:49;12.00;99.90
33927;DHT22;20485;50.992;5.550;2023-03-19T10:37:26;12.10;99.90
33927;DHT22;20485;50.992;5.550;2023-03-19T10:39:59;12.20;99.90
33927;DHT22;20485;50.992;5.550;2023-03-19T10:45:35;12.20;99.90
33927;DHT22;20485;50.992;5.550;2023-03-19T10:48:02;12.10;99.90
33927;DHT22;20485;50.992;5.550;2023-03-19T10:50:36;12.10;99.90
33927;DHT22;20485;50.992;5.550;2023-03-19T10:55:32;12.30;99.90
33927;DHT22;20485;50.992;5.550;2023-03-19T10:58:06;12.40;99.90
33927;DHT22;20485;50.992;5.550;2023-03-19T11:00:48;12.50;99.90
33927;DHT22;20485;50.992;5.550;2023-03-19T11:03:49;12.70;99.90
33927;DHT22;20485;50.992;5.550;2023-03-19T11:06:22;12.80;99.90
33927;DHT22;20485;50.992;5.550;2023-03-19T11:08:59;12.90;99.90
33927;DHT22;20485;50.992;5.550;2023-03-19T11:14:06;13.30;99.90
33927;DHT22;20485;50.992;5.550;2023-03-19T11:16:32;13.40;99.90
33927;DHT22;20485;50.992;5.550;2023-03-19T11:19:40;13.50;99.90
33927;DHT22;20485;50.992;5.550;2023-03-19T11:22:19;13.60;99.90
33927;DHT22;20485;50.992;5.550;2023-03-19T11:25:18;13.40;99.90
33927;DHT22;20485;50.992;5.550;2023-03-19T11:27:44;13.30;99.90
33927;DHT22;20485;50.992;5.550;2023-03-19T11:30:21;13.20;99.90
33927;DHT22;20485;50.992;5.550;2023-03-19T11:35:37;13.00;99.90
33927;DHT22;20485;50.992;5.550;2023-03-19T11:38:15;12.80;99.90
33927;DHT22;20485;50.992;5.550;2023-03-19T11:40:56;12.70;99.90
33927;DHT22;20485;50.992;5.550;2023-03-19T11:43:29;12.80;99.90
33927;DHT22;20485;50.992;5.550;2023-03-19T11:59:57;13.90;99.90
33927;DHT22;20485;50.992;5.550;2023-03-19T12:05:22;13.60;99.90
33927;DHT22;20485;50.992;5.550;2023-03-19T12:08:05;13.50;99.90
33927;DHT22;20485;50.992;5.550;2023-03-19T12:13:45;13.40;99.90
33927;DHT22;20485;50.992;5.550;2023-03-19T12:27:03;13.50;99.90
33927;DHT22;20485;50.992;5.550;2023-03-19T12:35:15;13.80;99.90
33927;DHT22;20485;50.992;5.550;2023-03-19T12:38:12;13.90;99.90
33927;DHT22;20485;50.992;5.550;2023-03-19T12:40:42;13.70;99.90
33927;DHT22;20485;50.992;5.550;2023-03-19T12:46:08;14.00;99.90
33927;DHT22;20485;50.992;5.550;2023-03-19T12:48:49;14.30;99.90
33927;DHT22;20485;50.992;5.550;2023-03-19T12:51:19;14.70;99.90
33927;DHT22;20485;50.992;5.550;2023-03-19T12:56:43;15.30;99.90
33927;DHT22;20485;50.992;5.550;2023-03-19T12:59:21;15.50;99.90
33927;DHT22;20485;50.992;5.550;2023-03-19T13:01:53;15.60;99.90
33927;DHT22;20485;50.992;5.550;2023-03-19T13:04:31;15.60;99.90
33927;DHT22;20485;50.992;5.550;2023-03-19T13:07:12;15.50;99.90
33927;DHT22;20485;50.992;5.550;2023-03-19T13:10:05;15.50;99.90
33927;DHT22;20485;50.992;5.550;2023-03-19T13:12:34;15.70;99.90
33927;DHT22;20485;50.992;5.550;2023-03-19T13:15:13;15.90;99.90
33927;DHT22;20485;50.992;5.550;2023-03-19T13:18:14;15.90;99.90
33927;DHT22;20485;50.992;5.550;2023-03-19T13:23:33;16.00;99.90
33927;DHT22;20485;50.992;5.550;2023-03-19T13:26:01;15.90;99.90
33927;DHT22;20485;50.992;5.550;2023-03-19T13:31:24;15.80;99.90
33927;DHT22;20485;50.992;5.550;2023-03-19T13:36:28;15.60;99.90
33927;DHT22;20485;50.992;5.550;2023-03-19T13:38:56;15.50;99.90
33927;DHT22;20485;50.992;5.550;2023-03-19T13:43:58;15.80;99.90
33927;DHT22;20485;50.992;5.550;2023-03-19T13:46:36;15.90;99.90
33927;DHT22;20485;50.992;5.550;2023-03-19T13:51:35;15.90;99.90
33927;DHT22;20485;50.992;5.550;2023-03-19T13:54:20;16.00;99.90
33927;DHT22;20485;50.992;5.550;2023-03-19T13:59:36;16.10;99.90
33927;DHT22;20485;50.992;5.550;2023-03-19T14:05:16;15.70;99.90
33927;DHT22;20485;50.992;5.550;2023-03-19T14:07:47;15.60;99.90
33927;DHT22;20485;50.992;5.550;2023-03-19T14:10:21;15.50;99.90
33927;DHT22;20485;50.992;5.550;2023-03-19T14:12:50;15.40;99.90
33927;DHT22;20485;50.992;5.550;2023-03-19T14:15:21;15.40;99.90
33927;DHT22;20485;50.992;5.550;2023-03-19T14:17:59;15.20;99.90
33927;DHT22;20485;50.992;5.550;2023-03-19T14:20:34;15.10;99.90
33927;DHT22;20485;50.992;5.550;2023-03-19T14:31:02;15.00;99.90
33927;DHT22;20485;50.992;5.550;2023-03-19T14:36:17;14.60;99.90
33927;DHT22;20485;50.992;5.550;2023-03-19T14:38:58;14.50;99.90
33927;DHT22;20485;50.992;5.550;2023-03-19T14:41:26;14.30;99.90
33927;DHT22;20485;50.992;5.550;2023-03-19T14:44:12;14.30;99.90
33927;DHT22;20485;50.992;5.550;2023-03-19T14:50:04;14.10;99.90
33927;DHT22;20485;50.992;5.550;2023-03-19T14:52:54;14.00;99.90
33927;DHT22;20485;50.992;5.550;2023-03-19T14:55:32;14.00;99.90
33927;DHT22;20485;50.992;5.550;2023-03-19T14:58:00;14.00;99.90
33927;DHT22;20485;50.992;5.550;2023-03-19T15:00:27;13.90;99.90
33927;DHT22;20485;50.992;5.550;2023-03-19T15:02:53;13.90;99.90
33927;DHT22;20485;50.992;5.550;2023-03-19T15:05:27;13.90;99.90
33927;DHT22;20485;50.992;5.550;2023-03-19T15:07:57;13.80;99.90
33927;DHT22;20485;50.992;5.550;2023-03-19T15:10:27;13.70;99.90
33927;DHT22;20485;50.992;5.550;2023-03-19T15:15:47;13.50;99.90
33927;DHT22;20485;50.992;5.550;2023-03-19T15:18:16;13.50;99.90
33927;DHT22;20485;50.992;5.550;2023-03-19T15:20:46;13.40;99.90
33927;DHT22;20485;50.992;5.550;2023-03-19T15:23:18;13.40;99.90
33927;DHT22;20485;50.992;5.550;2023-03-19T15:25:46;13.40;99.90
33927;DHT22;20485;50.992;5.550;2023-03-19T15:28:14;13.30;99.90
33927;DHT22;20485;50.992;5.550;2023-03-19T15:30:40;13.30;99.90
33927;DHT22;20485;50.992;5.550;2023-03-19T15:33:20;13.20;99.90
33927;DHT22;20485;50.992;5.550;2023-03-19T15:35:53;13.20;99.90
33927;DHT22;20485;50.992;5.550;2023-03-19T15:38:21;13.10;99.90
33927;DHT22;20485;50.992;5.550;2023-03-19T15:40:49;13.10;99.90
33927;DHT22;20485;50.992;5.550;2023-03-19T15:43:15;13.00;99.90
33927;DHT22;20485;50.992;5.550;2023-03-19T15:45:49;13.00;99.90
33927;DHT22;20485;50.992;5.550;2023-03-19T15:48:23;12.90;99.90
33927;DHT22;20485;50.992;5.550;2023-03-19T15:50:58;12.80;99.90
33927;DHT22;20485;50.992;5.550;2023-03-19T15:53:27;12.80;99.90
33927;DHT22;20485;50.992;5.550;2023-03-19T15:55:56;12.80;99.90
33927;DHT22;20485;50.992;5.550;2023-03-19T15:58:26;12.80;99.90
33927;DHT22;20485;50.992;5.550;2023-03-19T16:00:53;12.80;99.90
33927;DHT22;20485;50.992;5.550;2023-03-19T16:03:30;12.70;99.90
33927;DHT22;20485;50.992;5.550;2023-03-19T16:08:46;12.60;99.90
33927;DHT22;20485;50.992;5.550;2023-03-19T16:11:33;12.60;99.90
33927;DHT22;20485;50.992;5.550;2023-03-19T16:14:21;12.60;99.90
33927;DHT22;20485;50.992;5.550;2023-03-19T16:16:48;12.60;99.90
33927;DHT22;20485;50.992;5.550;2023-03-19T16:19:30;12.60;99.90
33927;DHT22;20485;50.992;5.550;2023-03-19T16:21:57;12.50;99.90
33927;DHT22;20485;50.992;5.550;2023-03-19T16:24:34;12.50;99.90
33927;DHT22;20485;50.992;5.550;2023-03-19T16:27:13;12.40;99.90
33927;DHT22;20485;50.992;5.550;2023-03-19T16:29:58;12.40;99.90
33927;DHT22;20485;50.992;5.550;2023-03-19T16:32:31;12.30;99.90
33927;DHT22;20485;50.992;5.550;2023-03-19T16:35:03;12.30;99.90
33927;DHT22;20485;50.992;5.550;2023-03-19T16:37:46;12.20;99.90
33927;DHT22;20485;50.992;5.550;2023-03-19T16:47:39;12.20;99.90
33927;DHT22;20485;50.992;5.550;2023-03-19T16:50:06;12.10;99.90
33927;DHT22;20485;50.992;5.550;2023-03-19T16:52:36;12.10;99.90
33927;DHT22;20485;50.992;5.550;2023-03-19T16:55:04;12.10;99.90
33927;DHT22;20485;50.992;5.550;2023-03-19T16:57:30;12.10;99.90
33927;DHT22;20485;50.992;5.550;2023-03-19T16:59:56;12.10;99.90
33927;DHT22;20485;50.992;5.550;2023-03-19T17:02:22;12.10;99.90
33927;DHT22;20485;50.992;5.550;2023-03-19T17:04:48;12.10;99.90
33927;DHT22;20485;50.992;5.550;2023-03-19T17:07:13;12.10;99.90
33927;DHT22;20485;50.992;5.550;2023-03-19T17:09:39;12.10;99.90
33927;DHT22;20485;50.992;5.550;2023-03-19T17:12:06;12.00;99.90
33927;DHT22;20485;50.992;5.550;2023-03-19T17:14:33;12.00;99.90
33927;DHT22;20485;50.992;5.550;2023-03-19T17:16:59;12.00;99.90
33927;DHT22;20485;50.992;5.550;2023-03-19T17:19:31;12.00;99.90
33927;DHT22;20485;50.992;5.550;2023-03-19T17:21:59;12.00;99.90
33927;DHT22;20485;50.992;5.550;2023-03-19T17:24:27;11.90;99.90
33927;DHT22;20485;50.992;5.550;2023-03-19T17:26:56;11.90;99.90
33927;DHT22;20485;50.992;5.550;2023-03-19T17:29:22;11.80;99.90
33927;DHT22;20485;50.992;5.550;2023-03-19T17:31:51;11.70;99.90
33927;DHT22;20485;50.992;5.550;2023-03-19T17:34:20;11.70;99.90
33927;DHT22;20485;50.992;5.550;2023-03-19T17:36:52;11.60;99.90
33927;DHT22;20485;50.992;5.550;2023-03-19T17:39:18;11.50;99.90
33927;DHT22;20485;50.992;5.550;2023-03-19T17:41:44;11.40;99.90
33927;DHT22;20485;50.992;5.550;2023-03-19T17:44:10;11.20;99.90
33927;DHT22;20485;50.992;5.550;2023-03-19T17:46:51;11.20;99.90
33927;DHT22;20485;50.992;5.550;2023-03-19T17:49:21;11.20;99.90
33927;DHT22;20485;50.992;5.550;2023-03-19T17:51:47;11.10;99.90
33927;DHT22;20485;50.992;5.550;2023-03-19T17:54:13;11.10;99.90
33927;DHT22;20485;50.992;5.550;2023-03-19T17:56:40;11.10;99.90